Current Data from WeatherLink Stations in Our Area ... Updated Every Minute
Location Temp HX DP RH Wind Baro Rain Max/Min Max Wind Max HX Time
Coffee Bluff 74.4 77 68.0 80 ENE 59° at Calm 29.92 0.00 74.5 / 74.4 Calm 76 12:47 AM Sunday, September 24, 2017
Savannah-Shawnee 72.8 76 71.0 94 SE 137° at Calm 29.99 0.00 73.3 / 72.7 Calm 76 12:47 AM Sunday, September 24, 2017
Savannah-Largo-Tibet 73.2 77 71.0 94 ESE 116° at Calm 29.95 0.00 73.6 / 73.2 Calm 76 12:47 AM Sunday, September 24, 2017
Sandfly - Driftaway 76.4 80 73.0 89 ESE 120° at Calm 29.95 0.00 76.4 / 76.2 2 mph 81 12:47 AM Sunday, September 24, 2017
Asbury Memorial (E Sav) 75.6 79 74.0 93 N 360° at Calm 29.96 0.00 75.7 / 75.6 Calm 79 12:47 AM Sunday, September 24, 2017
Dutch Island 76.2 80 73.0 89 E 91° at 3 mph 29.96 0.00 76.2 / 75.7 7 mph 80 12:47 AM Sunday, September 24, 2017
Burnside Island 78.4 83 73.0 84 NE 50° at 4 mph 29.91 0.00 78.5 / 78.2 12 mph 83 12:47 AM Sunday, September 24, 2017
Tybee at Tid Bit 78.1 82 74.0 87 SW 221° at Calm 29.95 0.00 78.1 / 77.9 Calm 83 12:47 AM Sunday, September 24, 2017
Tybee at Serenity 78.9 81 67.0 67 ENE 59° at 15 Mph 29.97 0.00 78.9 / 78.7 15 mph 81 12:47 AM Sunday, September 24, 2017
W Tybee at Burton 75.5 78 67.0 75 ENE 59° at 4 mph 30.08 0.00 75.5 / 69.8 11 mph 78 11:14 AM Thursday, September 7, 2017
W Garden City 71.5 75 70.0 96 ESE 110° at Calm 29.99 0.00 71.8 / 71.5 1 mph 75 12:47 AM Sunday, September 24, 2017
Rincon (N Chatham) 68.9 71 68.0 95 WNW 282° at Calm 29.96 0.00 69.2 / 68.8 Calm 71 12:47 AM Sunday, September 24, 2017
Sand Hill (SW Effingham) 67.4 69 66.0 96 SE 132° at Calm 29.94 0.00 67.9 / 67.4 Calm 70 12:46 AM Sunday, September 24, 2017
Black Creek (Bryan Co) 68.4 70 67.0 96 E 100° at Calm 30.06 0.00 68.9 / 68.4 Calm 71 12:45 AM Sunday, September 24, 2017
GA Southern Univ 71.7 74 69.0 91 SSW 201° at Calm 29.98 0.00 72.8 / 71.7 1 mph 75 12:47 AM Sunday, September 24, 2017
East Stateboro 70.4 68 47.0 44 NE 38° at Calm 29.96 0.00 70.9 / 70.4 Calm 69 12:47 AM Sunday, September 24, 2017
Stateboro EMA 71.6 74 70.0 94 E 92° at Calm 29.99 0.00 72.1 / 71.7 1 mph 75 12:47 AM Sunday, September 24, 2017
Stateboro EMS 69.4 72 68.0 95 SE 139° at Calm 29.99 0.00 70.5 / 69.4 Calm 73 12:47 AM Sunday, September 24, 2017
Garfield (Emmanuel CO) 67.3 69 67.0 97 ENE 65° at Calm 29.99 0.00 68.4 / 67.3 Calm 71 12:47 AM Sunday, September 24, 2017
Hinesville 69.8 73 69.0 98 N 356° at Calm 29.85 0.00 70.1 / 69.8 Calm 74 12:47 AM Sunday, September 24, 2017
Brunswick 76.5 80 74.0 90 N 5°t at Calm 29.91 0.00 76.9 / 76.2 5 mph 81 12:46 AM Sunday, September 24, 2017
St. Simons Island 86.9 98 76.0 71 NE 35° at 1 mph 30.00 0.00 86.9 / 73.9 4 mph 98 12:32 PM Thursday, September 21, 2017
South Carolina Stations
Location Temp HX DP RH Wind Baro Rain Max/Min Max Wind Max HX Time
Moss Creek 76.3 77 61.0 59 W 262° at Calm 29.98 0.00 76.3 / 75.5 Calm 77 12:47 AM Sunday, September 24, 2017
Rose Hill 71.5 75 70.0 96 E 92° at Calm 29.96 0.00 71.8 / 71.5 Calm 75 12:47 AM Sunday, September 24, 2017
Bluffton - Fox Meqdow 73.5 77 71.0 92 SSE 150° at Calm 29.97 0.00 73.5 / 73.3 3 mph 77 12:47 AM Sunday, September 24, 2017
Okatie - Donny Doon Plnt 74.3 78 73.0 95 SE 130° at Calm 29.97 0.00 76.4 / 74.3 2 mph 80 12:47 AM Sunday, September 24, 2017
Hilton Head, Ocean Club 78.6 83 75.0 87 NNE 27° at 1 mph 29.97 0.00 78.7 / 78.5 8 mph 84 12:47 AM Sunday, September 24, 2017
Hilton Head, PSD 78.9 84 74.0 84 N 349° at 1 mph 29.11 0.00 79.2 / 78.7 5 mph 84 12:47 AM Sunday, September 24, 2017
Fripp Island 77.9 82 73.0 84 SSW 193° at Calm 29.97 0.00 78.9 / 77.8 Calm 84 12:47 AM Sunday, September 24, 2017

Set up your own weather station with a DAVIS System and connect it to the Internet via WeatherLink
and share your data with us, the National Weather Service and the world!

RETURN to Pat Prokop's Weather and Nature Page